sensor_id;sensor_type;location;lat;lon;timestamp;pressure;altitude;pressure_sealevel;temperature;humidity
44138;BME280;29800;55.942;37.314;2023-01-16T00:01:25;99542.69;;;-1.66;65.21
44138;BME280;29800;55.942;37.314;2023-01-16T00:03:52;99528.81;;;-1.70;64.80
44138;BME280;29800;55.942;37.314;2023-01-16T00:06:18;99534.00;;;-1.68;65.11
44138;BME280;29800;55.942;37.314;2023-01-16T00:08:44;99540.16;;;-1.59;64.77
44138;BME280;29800;55.942;37.314;2023-01-16T00:11:11;99538.66;;;-1.62;64.72
44138;BME280;29800;55.942;37.314;2023-01-16T00:13:37;99534.94;;;-1.61;65.10
44138;BME280;29800;55.942;37.314;2023-01-16T00:16:04;99539.66;;;-1.63;64.62
44138;BME280;29800;55.942;37.314;2023-01-16T00:18:31;99523.75;;;-1.64;64.74
44138;BME280;29800;55.942;37.314;2023-01-16T00:20:57;99526.91;;;-1.61;64.73
44138;BME280;29800;55.942;37.314;2023-01-16T00:23:23;99505.56;;;-1.54;64.59
44138;BME280;29800;55.942;37.314;2023-01-16T00:25:49;99510.41;;;-1.50;64.23
44138;BME280;29800;55.942;37.314;2023-01-16T00:28:15;99516.63;;;-1.49;64.12
44138;BME280;29800;55.942;37.314;2023-01-16T00:30:41;99517.31;;;-1.55;64.13
44138;BME280;29800;55.942;37.314;2023-01-16T00:33:08;99513.59;;;-1.54;64.31
44138;BME280;29800;55.942;37.314;2023-01-16T00:35:35;99511.97;;;-1.55;64.18
44138;BME280;29800;55.942;37.314;2023-01-16T00:38:01;99508.44;;;-1.56;64.30
44138;BME280;29800;55.942;37.314;2023-01-16T00:40:29;99510.75;;;-1.53;64.23
44138;BME280;29800;55.942;37.314;2023-01-16T00:42:55;99509.75;;;-1.52;63.86
44138;BME280;29800;55.942;37.314;2023-01-16T00:45:21;99503.19;;;-1.49;63.75
44138;BME280;29800;55.942;37.314;2023-01-16T00:47:47;99500.50;;;-1.49;63.77
44138;BME280;29800;55.942;37.314;2023-01-16T00:50:13;99481.53;;;-1.48;63.73
44138;BME280;29800;55.942;37.314;2023-01-16T00:52:39;99484.94;;;-1.54;63.82
44138;BME280;29800;55.942;37.314;2023-01-16T00:55:06;99490.31;;;-1.54;63.74
44138;BME280;29800;55.942;37.314;2023-01-16T00:57:32;99486.75;;;-1.54;63.80
44138;BME280;29800;55.942;37.314;2023-01-16T00:59:58;99479.09;;;-1.57;63.79
44138;BME280;29800;55.942;37.314;2023-01-16T01:02:24;99474.72;;;-1.58;63.97
44138;BME280;29800;55.942;37.314;2023-01-16T01:04:50;99464.69;;;-1.64;64.07
44138;BME280;29800;55.942;37.314;2023-01-16T01:07:16;99467.91;;;-1.69;63.79
44138;BME280;29800;55.942;37.314;2023-01-16T01:09:42;99481.44;;;-1.62;63.70
44138;BME280;29800;55.942;37.314;2023-01-16T01:12:08;99468.50;;;-1.82;64.16
44138;BME280;29800;55.942;37.314;2023-01-16T01:14:34;99464.31;;;-1.85;64.54
44138;BME280;29800;55.942;37.314;2023-01-16T01:17:00;99446.88;;;-1.89;64.66
44138;BME280;29800;55.942;37.314;2023-01-16T01:19:26;99466.34;;;-1.87;64.33
44138;BME280;29800;55.942;37.314;2023-01-16T01:21:52;99467.00;;;-1.85;64.43
44138;BME280;29800;55.942;37.314;2023-01-16T01:24:18;99459.44;;;-1.81;64.60
44138;BME280;29800;55.942;37.314;2023-01-16T01:26:44;99461.09;;;-1.80;64.57
44138;BME280;29800;55.942;37.314;2023-01-16T01:29:10;99452.34;;;-1.74;64.12
44138;BME280;29800;55.942;37.314;2023-01-16T01:31:36;99436.78;;;-1.78;64.35
44138;BME280;29800;55.942;37.314;2023-01-16T01:34:02;99442.50;;;-1.81;64.22
44138;BME280;29800;55.942;37.314;2023-01-16T01:36:28;99433.69;;;-1.90;64.83
44138;BME280;29800;55.942;37.314;2023-01-16T01:38:54;99442.72;;;-1.91;64.65
44138;BME280;29800;55.942;37.314;2023-01-16T01:41:20;99446.06;;;-1.89;64.50
44138;BME280;29800;55.942;37.314;2023-01-16T01:43:54;99449.41;;;-1.87;64.54
44138;BME280;29800;55.942;37.314;2023-01-16T01:46:40;99440.28;;;-1.78;64.77
44138;BME280;29800;55.942;37.314;2023-01-16T01:49:27;99434.97;;;-1.86;64.59
44138;BME280;29800;55.942;37.314;2023-01-16T01:51:56;99429.97;;;-1.89;64.51
44138;BME280;29800;55.942;37.314;2023-01-16T01:54:29;99434.50;;;-1.90;64.92
44138;BME280;29800;55.942;37.314;2023-01-16T01:57:00;99429.50;;;-1.93;64.87
44138;BME280;29800;55.942;37.314;2023-01-16T01:59:33;99437.34;;;-1.91;64.79
44138;BME280;29800;55.942;37.314;2023-01-16T02:02:01;99436.53;;;-1.92;64.99
44138;BME280;29800;55.942;37.314;2023-01-16T02:04:33;99430.00;;;-1.97;64.98
44138;BME280;29800;55.942;37.314;2023-01-16T02:07:04;99427.69;;;-2.00;65.46
44138;BME280;29800;55.942;37.314;2023-01-16T02:09:31;99432.56;;;-2.04;65.45
44138;BME280;29800;55.942;37.314;2023-01-16T02:12:02;99422.31;;;-2.00;65.52
44138;BME280;29800;55.942;37.314;2023-01-16T02:14:33;99427.31;;;-1.97;65.64
44138;BME280;29800;55.942;37.314;2023-01-16T02:17:09;99419.56;;;-1.92;65.61
44138;BME280;29800;55.942;37.314;2023-01-16T02:26:12;99417.25;;;-1.72;64.71
44138;BME280;29800;55.942;37.314;2023-01-16T02:31:31;99424.84;;;-1.76;64.79
44138;BME280;29800;55.942;37.314;2023-01-16T02:36:53;99427.53;;;-1.76;64.82
44138;BME280;29800;55.942;37.314;2023-01-16T02:45:29;99415.31;;;-1.78;64.83
44138;BME280;29800;55.942;37.314;2023-01-16T02:50:28;99398.81;;;-1.98;65.52
44138;BME280;29800;55.942;37.314;2023-01-16T02:58:45;99387.25;;;-1.99;65.36
44138;BME280;29800;55.942;37.314;2023-01-16T03:01:12;99390.59;;;-1.97;65.20
44138;BME280;29800;55.942;37.314;2023-01-16T03:04:02;99394.31;;;-1.98;65.93
44138;BME280;29800;55.942;37.314;2023-01-16T03:06:43;99385.75;;;-1.93;65.91
44138;BME280;29800;55.942;37.314;2023-01-16T03:09:58;99395.72;;;-1.87;65.75
44138;BME280;29800;55.942;37.314;2023-01-16T03:13:21;99389.91;;;-1.91;65.61
44138;BME280;29800;55.942;37.314;2023-01-16T03:19:08;99382.66;;;-1.82;65.69
44138;BME280;29800;55.942;37.314;2023-01-16T03:27:17;99371.91;;;-1.82;65.43
44138;BME280;29800;55.942;37.314;2023-01-16T03:30:07;99382.38;;;-1.72;65.30
44138;BME280;29800;55.942;37.314;2023-01-16T03:32:41;99386.34;;;-1.83;65.26
44138;BME280;29800;55.942;37.314;2023-01-16T03:37:50;99388.72;;;-1.88;65.59
44138;BME280;29800;55.942;37.314;2023-01-16T03:40:23;99388.06;;;-1.90;65.86
44138;BME280;29800;55.942;37.314;2023-01-16T03:46:12;99375.91;;;-1.78;66.01
44138;BME280;29800;55.942;37.314;2023-01-16T03:48:58;99384.00;;;-1.86;65.64
44138;BME280;29800;55.942;37.314;2023-01-16T03:51:31;99384.00;;;-1.86;65.76
44138;BME280;29800;55.942;37.314;2023-01-16T03:54:10;99375.13;;;-1.87;65.72
44138;BME280;29800;55.942;37.314;2023-01-16T03:56:55;99361.72;;;-1.87;65.70
44138;BME280;29800;55.942;37.314;2023-01-16T03:59:23;99383.34;;;-1.88;65.66
44138;BME280;29800;55.942;37.314;2023-01-16T04:10:04;99364.69;;;-1.81;65.65
44138;BME280;29800;55.942;37.314;2023-01-16T04:12:37;99359.97;;;-1.79;65.59
44138;BME280;29800;55.942;37.314;2023-01-16T04:15:08;99359.16;;;-1.80;65.58
44138;BME280;29800;55.942;37.314;2023-01-16T04:17:36;99358.69;;;-1.83;65.47
44138;BME280;29800;55.942;37.314;2023-01-16T04:20:05;99354.19;;;-1.91;65.89
44138;BME280;29800;55.942;37.314;2023-01-16T04:22:31;99355.88;;;-1.90;65.56
44138;BME280;29800;55.942;37.314;2023-01-16T04:24:59;99360.91;;;-1.95;65.68
44138;BME280;29800;55.942;37.314;2023-01-16T04:27:28;99346.50;;;-1.94;65.96
44138;BME280;29800;55.942;37.314;2023-01-16T04:29:54;99342.69;;;-2.00;65.95
44138;BME280;29800;55.942;37.314;2023-01-16T04:32:21;99340.19;;;-2.01;66.46
44138;BME280;29800;55.942;37.314;2023-01-16T04:34:47;99351.88;;;-1.94;65.98
44138;BME280;29800;55.942;37.314;2023-01-16T04:37:15;99353.53;;;-1.93;65.98
44138;BME280;29800;55.942;37.314;2023-01-16T04:39:41;99332.78;;;-1.99;66.21
44138;BME280;29800;55.942;37.314;2023-01-16T04:42:08;99334.66;;;-2.00;66.45
44138;BME280;29800;55.942;37.314;2023-01-16T04:44:35;99335.41;;;-1.91;66.33
44138;BME280;29800;55.942;37.314;2023-01-16T04:47:01;99339.44;;;-1.95;65.95
44138;BME280;29800;55.942;37.314;2023-01-16T04:49:28;99337.63;;;-1.95;66.22
44138;BME280;29800;55.942;37.314;2023-01-16T04:51:54;99340.78;;;-1.91;66.04
44138;BME280;29800;55.942;37.314;2023-01-16T04:54:20;99333.09;;;-1.94;65.93
44138;BME280;29800;55.942;37.314;2023-01-16T04:56:46;99331.72;;;-1.90;65.39
44138;BME280;29800;55.942;37.314;2023-01-16T04:59:12;99318.72;;;-2.01;65.68
44138;BME280;29800;55.942;37.314;2023-01-16T05:01:40;99326.41;;;-1.98;65.85
44138;BME280;29800;55.942;37.314;2023-01-16T05:04:07;99327.78;;;-2.03;65.82
44138;BME280;29800;55.942;37.314;2023-01-16T05:06:34;99323.28;;;-2.10;65.75
44138;BME280;29800;55.942;37.314;2023-01-16T05:09:02;99327.53;;;-2.16;66.16
44138;BME280;29800;55.942;37.314;2023-01-16T05:11:28;99319.50;;;-2.16;66.26
44138;BME280;29800;55.942;37.314;2023-01-16T05:13:54;99324.50;;;-2.13;66.14
44138;BME280;29800;55.942;37.314;2023-01-16T05:16:21;99308.88;;;-2.09;66.12
44138;BME280;29800;55.942;37.314;2023-01-16T05:18:47;99312.03;;;-2.06;65.89
44138;BME280;29800;55.942;37.314;2023-01-16T05:21:13;99314.78;;;-2.14;66.36
44138;BME280;29800;55.942;37.314;2023-01-16T05:23:40;99318.63;;;-2.08;66.18
44138;BME280;29800;55.942;37.314;2023-01-16T05:26:06;99310.25;;;-2.13;66.44
44138;BME280;29800;55.942;37.314;2023-01-16T05:28:34;99312.28;;;-2.15;66.58
44138;BME280;29800;55.942;37.314;2023-01-16T05:31:01;99316.81;;;-2.16;66.44
44138;BME280;29800;55.942;37.314;2023-01-16T05:33:27;99312.84;;;-2.28;66.61
44138;BME280;29800;55.942;37.314;2023-01-16T05:35:53;99315.72;;;-2.30;66.77
44138;BME280;29800;55.942;37.314;2023-01-16T05:38:20;99317.50;;;-2.22;66.81
44138;BME280;29800;55.942;37.314;2023-01-16T05:40:46;99316.81;;;-2.16;66.77
44138;BME280;29800;55.942;37.314;2023-01-16T05:43:13;99312.75;;;-2.12;66.43
44138;BME280;29800;55.942;37.314;2023-01-16T05:45:40;99315.72;;;-2.07;66.50
44138;BME280;29800;55.942;37.314;2023-01-16T05:48:06;99319.16;;;-2.13;66.14
44138;BME280;29800;55.942;37.314;2023-01-16T05:50:32;99329.00;;;-2.13;66.20
44138;BME280;29800;55.942;37.314;2023-01-16T05:52:58;99317.50;;;-2.22;66.29
44138;BME280;29800;55.942;37.314;2023-01-16T05:55:25;99318.22;;;-2.28;66.52
44138;BME280;29800;55.942;37.314;2023-01-16T05:57:51;99311.56;;;-2.32;66.17
44138;BME280;29800;55.942;37.314;2023-01-16T06:00:17;99325.38;;;-2.44;66.71
44138;BME280;29800;55.942;37.314;2023-01-16T06:02:44;99314.50;;;-2.50;66.95
44138;BME280;29800;55.942;37.314;2023-01-16T06:05:12;99324.19;;;-2.49;67.44
44138;BME280;29800;55.942;37.314;2023-01-16T06:07:39;99315.00;;;-2.47;67.00
44138;BME280;29800;55.942;37.314;2023-01-16T06:10:09;99310.81;;;-2.49;66.95
44138;BME280;29800;55.942;37.314;2023-01-16T06:12:35;99311.66;;;-2.49;67.27
44138;BME280;29800;55.942;37.314;2023-01-16T06:15:02;99320.34;;;-2.47;67.27
44138;BME280;29800;55.942;37.314;2023-01-16T06:17:30;99320.81;;;-2.43;66.92
44138;BME280;29800;55.942;37.314;2023-01-16T06:19:56;99327.28;;;-2.29;67.19
44138;BME280;29800;55.942;37.314;2023-01-16T06:22:23;99330.28;;;-2.24;66.91
44138;BME280;29800;55.942;37.314;2023-01-16T06:24:51;99326.56;;;-2.23;67.07
44138;BME280;29800;55.942;37.314;2023-01-16T06:27:18;99349.88;;;-2.24;66.76
44138;BME280;29800;55.942;37.314;2023-01-16T06:29:43;99337.66;;;-2.26;66.52
44138;BME280;29800;55.942;37.314;2023-01-16T06:32:09;99329.34;;;-2.40;66.45
44138;BME280;29800;55.942;37.314;2023-01-16T06:34:35;99323.38;;;-2.50;66.59
44138;BME280;29800;55.942;37.314;2023-01-16T06:37:01;99336.78;;;-2.50;67.00
44138;BME280;29800;55.942;37.314;2023-01-16T06:39:27;99343.22;;;-2.59;66.65
44138;BME280;29800;55.942;37.314;2023-01-16T06:41:53;99329.81;;;-2.67;67.53
44138;BME280;29800;55.942;37.314;2023-01-16T06:44:19;99357.63;;;-2.68;67.50
44138;BME280;29800;55.942;37.314;2023-01-16T06:46:45;99342.38;;;-2.68;67.17
44138;BME280;29800;55.942;37.314;2023-01-16T06:49:11;99337.03;;;-2.68;67.31
44138;BME280;29800;55.942;37.314;2023-01-16T06:51:37;99350.59;;;-2.69;67.90
44138;BME280;29800;55.942;37.314;2023-01-16T06:54:03;99333.53;;;-2.68;67.55
44138;BME280;29800;55.942;37.314;2023-01-16T06:56:29;99340.19;;;-2.64;67.59
44138;BME280;29800;55.942;37.314;2023-01-16T06:58:56;99342.84;;;-2.56;66.96
44138;BME280;29800;55.942;37.314;2023-01-16T07:01:22;99338.81;;;-2.52;67.06
44138;BME280;29800;55.942;37.314;2023-01-16T07:03:48;99333.44;;;-2.52;67.15
44138;BME280;29800;55.942;37.314;2023-01-16T07:06:13;99326.06;;;-2.50;67.08
44138;BME280;29800;55.942;37.314;2023-01-16T07:08:40;99335.47;;;-2.54;66.80
44138;BME280;29800;55.942;37.314;2023-01-16T07:11:06;99332.75;;;-2.46;66.91
44138;BME280;29800;55.942;37.314;2023-01-16T07:13:31;99320.00;;;-2.44;66.90
44138;BME280;29800;55.942;37.314;2023-01-16T07:15:59;99322.69;;;-2.44;66.66
44138;BME280;29800;55.942;37.314;2023-01-16T07:18:43;99321.69;;;-2.43;66.39
44138;BME280;29800;55.942;37.314;2023-01-16T07:21:28;99338.75;;;-2.44;66.71
44138;BME280;29800;55.942;37.314;2023-01-16T07:24:24;99333.75;;;-2.47;66.49
44138;BME280;29800;55.942;37.314;2023-01-16T07:26:57;99328.13;;;-2.60;66.77
44138;BME280;29800;55.942;37.314;2023-01-16T07:29:29;99333.97;;;-2.56;67.02
44138;BME280;29800;55.942;37.314;2023-01-16T07:31:58;99336.44;;;-2.47;67.15
44138;BME280;29800;55.942;37.314;2023-01-16T07:34:25;99315.47;;;-2.43;66.92
44138;BME280;29800;55.942;37.314;2023-01-16T07:36:52;99329.16;;;-2.38;66.59
44138;BME280;29800;55.942;37.314;2023-01-16T07:39:18;99331.69;;;-2.36;66.66
44138;BME280;29800;55.942;37.314;2023-01-16T07:41:44;99339.41;;;-2.42;66.75
44138;BME280;29800;55.942;37.314;2023-01-16T07:44:11;99317.31;;;-2.44;66.39
44138;BME280;29800;55.942;37.314;2023-01-16T07:46:37;99322.91;;;-2.53;66.30
44138;BME280;29800;55.942;37.314;2023-01-16T07:49:03;99329.59;;;-2.58;66.74
44138;BME280;29800;55.942;37.314;2023-01-16T07:51:29;99328.34;;;-2.70;67.01
44138;BME280;29800;55.942;37.314;2023-01-16T07:53:55;99329.13;;;-2.61;67.02
44138;BME280;29800;55.942;37.314;2023-01-16T07:56:21;99332.84;;;-2.62;66.80
44138;BME280;29800;55.942;37.314;2023-01-16T07:58:47;99335.69;;;-2.64;66.63
44138;BME280;29800;55.942;37.314;2023-01-16T08:01:15;99334.34;;;-2.68;66.99
44138;BME280;29800;55.942;37.314;2023-01-16T08:03:41;99333.03;;;-2.72;67.10
44138;BME280;29800;55.942;37.314;2023-01-16T08:06:07;99350.28;;;-2.74;66.81
44138;BME280;29800;55.942;37.314;2023-01-16T08:08:33;99337.53;;;-2.72;67.07
44138;BME280;29800;55.942;37.314;2023-01-16T08:11:00;99340.91;;;-2.70;66.64
44138;BME280;29800;55.942;37.314;2023-01-16T08:13:46;99338.41;;;-2.72;67.11
44138;BME280;29800;55.942;37.314;2023-01-16T08:16:13;99325.34;;;-2.75;66.89
44138;BME280;29800;55.942;37.314;2023-01-16T08:18:39;99334.69;;;-2.71;67.08
44138;BME280;29800;55.942;37.314;2023-01-16T08:21:05;99315.28;;;-2.73;67.26
44138;BME280;29800;55.942;37.314;2023-01-16T08:23:31;99311.44;;;-2.70;66.85
44138;BME280;29800;55.942;37.314;2023-01-16T08:25:57;99307.91;;;-2.71;66.74
44138;BME280;29800;55.942;37.314;2023-01-16T08:28:26;99308.38;;;-2.67;66.69
44138;BME280;29800;55.942;37.314;2023-01-16T08:30:52;99314.91;;;-2.62;66.44
44138;BME280;29800;55.942;37.314;2023-01-16T08:33:18;99308.38;;;-2.67;66.75
44138;BME280;29800;55.942;37.314;2023-01-16T08:35:44;99309.06;;;-2.65;66.75
44138;BME280;29800;55.942;37.314;2023-01-16T08:38:11;99310.06;;;-2.66;66.74
44138;BME280;29800;55.942;37.314;2023-01-16T08:40:37;99323.75;;;-2.61;66.67
44138;BME280;29800;55.942;37.314;2023-01-16T08:43:03;99284.59;;;-2.62;66.47
44138;BME280;29800;55.942;37.314;2023-01-16T08:45:47;99293.28;;;-2.60;66.71
44138;BME280;29800;55.942;37.314;2023-01-16T08:48:31;99292.94;;;-2.57;66.10
44138;BME280;29800;55.942;37.314;2023-01-16T08:51:18;99304.00;;;-2.60;66.00
44138;BME280;29800;55.942;37.314;2023-01-16T08:53:49;99293.19;;;-2.75;66.70
44138;BME280;29800;55.942;37.314;2023-01-16T08:56:15;99289.81;;;-2.69;66.72
44138;BME280;29800;55.942;37.314;2023-01-16T08:58:41;99308.09;;;-2.81;66.66
44138;BME280;29800;55.942;37.314;2023-01-16T09:01:08;99300.25;;;-2.82;66.27
44138;BME280;29800;55.942;37.314;2023-01-16T09:03:34;99300.09;;;-2.89;66.98
44138;BME280;29800;55.942;37.314;2023-01-16T09:06:01;99291.72;;;-2.86;66.22
44138;BME280;29800;55.942;37.314;2023-01-16T09:08:27;99300.44;;;-2.92;66.81
44138;BME280;29800;55.942;37.314;2023-01-16T09:10:53;99296.47;;;-2.96;66.95
44138;BME280;29800;55.942;37.314;2023-01-16T09:13:37;99290.81;;;-3.01;67.33
44138;BME280;29800;55.942;37.314;2023-01-16T09:16:23;99318.03;;;-2.89;67.54
44138;BME280;29800;55.942;37.314;2023-01-16T09:18:50;99299.13;;;-2.88;67.30
44138;BME280;29800;55.942;37.314;2023-01-16T09:21:17;99282.38;;;-2.90;66.98
44138;BME280;29800;55.942;37.314;2023-01-16T09:23:50;99290.38;;;-2.82;67.10
44138;BME280;29800;55.942;37.314;2023-01-16T09:26:16;99292.03;;;-2.81;66.85
44138;BME280;29800;55.942;37.314;2023-01-16T09:28:43;99267.75;;;-2.79;67.27
44138;BME280;29800;55.942;37.314;2023-01-16T09:31:09;99262.81;;;-2.67;67.17
44138;BME280;29800;55.942;37.314;2023-01-16T09:33:35;99280.88;;;-2.61;66.95
44138;BME280;29800;55.942;37.314;2023-01-16T09:36:03;99257.84;;;-2.70;67.22
44138;BME280;29800;55.942;37.314;2023-01-16T09:38:29;99248.72;;;-2.61;67.14
44138;BME280;29800;55.942;37.314;2023-01-16T09:40:57;99263.63;;;-2.59;67.34
44138;BME280;29800;55.942;37.314;2023-01-16T09:43:39;99245.53;;;-2.56;67.02
44138;BME280;29800;55.942;37.314;2023-01-16T09:46:22;99243.16;;;-2.51;66.94
44138;BME280;29800;55.942;37.314;2023-01-16T09:49:11;99243.94;;;-2.43;67.04
44138;BME280;29800;55.942;37.314;2023-01-16T09:51:49;99254.84;;;-2.44;67.09
44138;BME280;29800;55.942;37.314;2023-01-16T09:54:58;99256.72;;;-2.53;66.91
44138;BME280;29800;55.942;37.314;2023-01-16T09:57:46;99257.81;;;-2.62;67.57
44138;BME280;29800;55.942;37.314;2023-01-16T10:00:33;99246.53;;;-2.58;68.10
44138;BME280;29800;55.942;37.314;2023-01-16T10:03:00;99241.78;;;-2.47;68.22
44138;BME280;29800;55.942;37.314;2023-01-16T10:11:24;99241.56;;;-2.37;68.17
44138;BME280;29800;55.942;37.314;2023-01-16T10:14:57;99232.19;;;-2.42;67.85
44138;BME280;29800;55.942;37.314;2023-01-16T10:17:02;99247.34;;;-2.49;68.29
44138;BME280;29800;55.942;37.314;2023-01-16T10:19:44;99237.78;;;-2.51;68.34
44138;BME280;29800;55.942;37.314;2023-01-16T10:25:27;99228.03;;;-2.44;68.78
44138;BME280;29800;55.942;37.314;2023-01-16T10:28:12;99236.50;;;-2.32;68.91
44138;BME280;29800;55.942;37.314;2023-01-16T10:31:08;99224.66;;;-2.23;69.17
44138;BME280;29800;55.942;37.314;2023-01-16T10:33:48;99233.38;;;-2.21;69.19
44138;BME280;29800;55.942;37.314;2023-01-16T10:36:17;99225.34;;;-2.21;68.99
44138;BME280;29800;55.942;37.314;2023-01-16T10:38:47;99216.63;;;-2.23;69.00
44138;BME280;29800;55.942;37.314;2023-01-16T10:44:31;99221.66;;;-2.05;69.35
44138;BME280;29800;55.942;37.314;2023-01-16T10:47:18;99211.81;;;-2.05;69.02
44138;BME280;29800;55.942;37.314;2023-01-16T10:50:05;99227.16;;;-1.98;69.17
44138;BME280;29800;55.942;37.314;2023-01-16T10:52:31;99225.97;;;-1.96;68.88
44138;BME280;29800;55.942;37.314;2023-01-16T10:54:59;99218.91;;;-1.97;68.79
44138;BME280;29800;55.942;37.314;2023-01-16T10:57:27;99209.88;;;-1.96;68.94
44138;BME280;29800;55.942;37.314;2023-01-16T10:59:58;99223.03;;;-1.86;68.63
44138;BME280;29800;55.942;37.314;2023-01-16T11:02:45;99220.06;;;-1.76;68.68
44138;BME280;29800;55.942;37.314;2023-01-16T11:05:41;99215.72;;;-1.62;68.36
44138;BME280;29800;55.942;37.314;2023-01-16T11:08:16;99229.22;;;-1.71;67.72
44138;BME280;29800;55.942;37.314;2023-01-16T11:10:50;99206.03;;;-1.78;68.20
44138;BME280;29800;55.942;37.314;2023-01-16T11:13:21;99205.16;;;-1.79;67.89
44138;BME280;29800;55.942;37.314;2023-01-16T11:19:15;99216.13;;;-1.65;68.07
44138;BME280;29800;55.942;37.314;2023-01-16T11:21:44;99208.06;;;-1.65;67.59
44138;BME280;29800;55.942;37.314;2023-01-16T11:24:16;99214.81;;;-1.70;67.65
44138;BME280;29800;55.942;37.314;2023-01-16T11:26:48;99224.25;;;-1.74;67.43
44138;BME280;29800;55.942;37.314;2023-01-16T11:29:17;99207.47;;;-1.76;67.12
44138;BME280;29800;55.942;37.314;2023-01-16T11:31:52;99210.16;;;-1.76;67.57
44138;BME280;29800;55.942;37.314;2023-01-16T11:34:22;99216.50;;;-1.69;67.81
44138;BME280;29800;55.942;37.314;2023-01-16T11:36:57;99230.38;;;-1.65;67.66
44138;BME280;29800;55.942;37.314;2023-01-16T11:39:27;99207.50;;;-1.61;67.35
44138;BME280;29800;55.942;37.314;2023-01-16T11:41:57;99199.16;;;-1.51;67.22
44138;BME280;29800;55.942;37.314;2023-01-16T11:44:28;99209.63;;;-1.56;67.18
44138;BME280;29800;55.942;37.314;2023-01-16T11:47:20;99206.31;;;-1.58;67.38
44138;BME280;29800;55.942;37.314;2023-01-16T11:49:49;99214.91;;;-1.63;67.46
44138;BME280;29800;55.942;37.314;2023-01-16T11:52:18;99210.00;;;-1.59;67.44
44138;BME280;29800;55.942;37.314;2023-01-16T11:55:00;99200.22;;;-1.52;67.66
44138;BME280;29800;55.942;37.314;2023-01-16T12:00:34;99203.53;;;-1.35;67.51
44138;BME280;29800;55.942;37.314;2023-01-16T12:08:59;99207.50;;;-1.46;67.30
44138;BME280;29800;55.942;37.314;2023-01-16T12:15:07;99212.78;;;-1.53;67.71
44138;BME280;29800;55.942;37.314;2023-01-16T12:26:21;99211.03;;;-1.60;68.25
44138;BME280;29800;55.942;37.314;2023-01-16T12:37:46;99231.28;;;-1.73;68.81
44138;BME280;29800;55.942;37.314;2023-01-16T12:41:19;99212.59;;;-1.66;68.35
44138;BME280;29800;55.942;37.314;2023-01-16T12:46:32;99215.72;;;-1.62;68.38
44138;BME280;29800;55.942;37.314;2023-01-16T12:49:06;99219.09;;;-1.60;68.07
44138;BME280;29800;55.942;37.314;2023-01-16T13:00:19;99225.47;;;-1.61;68.00
44138;BME280;29800;55.942;37.314;2023-01-16T13:03:15;99212.88;;;-1.61;67.82
44138;BME280;29800;55.942;37.314;2023-01-16T13:05:45;99218.31;;;-1.69;68.24
44138;BME280;29800;55.942;37.314;2023-01-16T13:08:21;99230.19;;;-1.63;67.91
44138;BME280;29800;55.942;37.314;2023-01-16T13:10:55;99224.47;;;-1.60;68.14
44138;BME280;29800;55.942;37.314;2023-01-16T13:13:57;99229.47;;;-1.57;67.70
44138;BME280;29800;55.942;37.314;2023-01-16T13:16:30;99223.31;;;-1.66;67.92
44138;BME280;29800;55.942;37.314;2023-01-16T13:19:14;99224.81;;;-1.63;68.03
44138;BME280;29800;55.942;37.314;2023-01-16T13:22:14;99217.69;;;-1.56;67.95
44138;BME280;29800;55.942;37.314;2023-01-16T13:24:54;99218.22;;;-1.61;67.57
44138;BME280;29800;55.942;37.314;2023-01-16T13:27:38;99230.09;;;-1.55;67.76
44138;BME280;29800;55.942;37.314;2023-01-16T13:30:12;99230.28;;;-1.57;67.42
44138;BME280;29800;55.942;37.314;2023-01-16T13:32:48;99221.22;;;-1.56;67.72
44138;BME280;29800;55.942;37.314;2023-01-16T13:35:23;99237.59;;;-1.51;67.53
44138;BME280;29800;55.942;37.314;2023-01-16T13:37:54;99226.59;;;-1.41;66.88
44138;BME280;29800;55.942;37.314;2023-01-16T13:43:24;99237.88;;;-1.45;67.49
44138;BME280;29800;55.942;37.314;2023-01-16T13:46:10;99242.88;;;-1.42;67.02
44138;BME280;29800;55.942;37.314;2023-01-16T13:48:37;99235.09;;;-1.37;66.75
44138;BME280;29800;55.942;37.314;2023-01-16T13:51:11;99234.25;;;-1.38;67.21
44138;BME280;29800;55.942;37.314;2023-01-16T13:53:40;99239.34;;;-1.43;66.93
44138;BME280;29800;55.942;37.314;2023-01-16T13:56:12;99236.75;;;-1.51;66.87
44138;BME280;29800;55.942;37.314;2023-01-16T13:58:41;99246.38;;;-1.57;67.03
44138;BME280;29800;55.942;37.314;2023-01-16T14:01:32;99244.88;;;-1.59;67.09
44138;BME280;29800;55.942;37.314;2023-01-16T14:06:49;99238.88;;;-1.61;67.49
44138;BME280;29800;55.942;37.314;2023-01-16T14:09:20;99241.47;;;-1.53;67.14
44138;BME280;29800;55.942;37.314;2023-01-16T14:17:27;99231.81;;;-1.77;67.66
44138;BME280;29800;55.942;37.314;2023-01-16T14:20:02;99243.88;;;-1.73;67.68
44138;BME280;29800;55.942;37.314;2023-01-16T14:22:34;99247.03;;;-1.55;67.31
44138;BME280;29800;55.942;37.314;2023-01-16T14:25:00;99250.69;;;-1.71;67.40
44138;BME280;29800;55.942;37.314;2023-01-16T14:27:32;99257.09;;;-1.72;67.63
44138;BME280;29800;55.942;37.314;2023-01-16T14:30:05;99247.00;;;-1.70;67.64
44138;BME280;29800;55.942;37.314;2023-01-16T14:32:35;99252.38;;;-1.70;67.50
44138;BME280;29800;55.942;37.314;2023-01-16T14:36:09;99254.41;;;-1.72;68.01
44138;BME280;29800;55.942;37.314;2023-01-16T14:38:06;99255.50;;;-1.81;67.68
44138;BME280;29800;55.942;37.314;2023-01-16T14:40:38;99266.47;;;-1.91;68.28
44138;BME280;29800;55.942;37.314;2023-01-16T14:43:31;99267.34;;;-1.90;68.78
44138;BME280;29800;55.942;37.314;2023-01-16T14:49:39;99254.22;;;-1.85;68.33
44138;BME280;29800;55.942;37.314;2023-01-16T14:55:33;99236.44;;;-1.86;68.15
44138;BME280;29800;55.942;37.314;2023-01-16T14:58:00;99244.03;;;-1.90;68.46
44138;BME280;29800;55.942;37.314;2023-01-16T15:00:29;99245.28;;;-2.00;68.77
44138;BME280;29800;55.942;37.314;2023-01-16T15:03:43;99241.84;;;-2.09;69.09
44138;BME280;29800;55.942;37.314;2023-01-16T15:05:50;99242.94;;;-2.04;69.27
44138;BME280;29800;55.942;37.314;2023-01-16T15:08:33;99251.97;;;-1.96;69.33
44138;BME280;29800;55.942;37.314;2023-01-16T15:11:07;99266.72;;;-2.00;69.17
44138;BME280;29800;55.942;37.314;2023-01-16T15:14:15;99261.31;;;-1.92;69.65
44138;BME280;29800;55.942;37.314;2023-01-16T15:17:18;99268.28;;;-1.83;69.03
44138;BME280;29800;55.942;37.314;2023-01-16T15:22:53;99258.25;;;-1.89;69.61